sensor_id;sensor_type;location;lat;lon;timestamp;P1;durP1;ratioP1;P2;durP2;ratioP2
69835;SDS011;57132;51.972;4.450;2022-10-16T00:01:21;1409.13;;;999.90;;
69835;SDS011;57132;51.972;4.450;2022-10-16T00:03:49;1466.50;;;999.90;;
69835;SDS011;57132;51.972;4.450;2022-10-16T00:06:16;1450.10;;;999.90;;
69835;SDS011;57132;51.972;4.450;2022-10-16T00:08:42;1460.10;;;999.90;;
69835;SDS011;57132;51.972;4.450;2022-10-16T00:11:12;1400.97;;;999.90;;
69835;SDS011;57132;51.972;4.450;2022-10-16T00:13:40;1463.93;;;999.90;;
69835;SDS011;57132;51.972;4.450;2022-10-16T00:16:07;1489.95;;;999.90;;
69835;SDS011;57132;51.972;4.450;2022-10-16T00:18:33;1470.43;;;999.90;;
69835;SDS011;57132;51.972;4.450;2022-10-16T00:21:03;1464.40;;;998.53;;
69835;SDS011;57132;51.972;4.450;2022-10-16T00:23:30;1435.97;;;999.90;;
69835;SDS011;57132;51.972;4.450;2022-10-16T00:25:57;1491.70;;;999.90;;
69835;SDS011;57132;51.972;4.450;2022-10-16T00:28:24;1458.75;;;999.90;;
69835;SDS011;57132;51.972;4.450;2022-10-16T00:30:50;1484.45;;;999.90;;
69835;SDS011;57132;51.972;4.450;2022-10-16T00:33:15;1421.97;;;998.80;;
69835;SDS011;57132;51.972;4.450;2022-10-16T00:35:40;1493.13;;;999.90;;
69835;SDS011;57132;51.972;4.450;2022-10-16T00:38:06;1445.65;;;999.90;;
69835;SDS011;57132;51.972;4.450;2022-10-16T00:40:31;1374.60;;;999.90;;
69835;SDS011;57132;51.972;4.450;2022-10-16T00:42:56;1395.63;;;999.90;;
69835;SDS011;57132;51.972;4.450;2022-10-16T00:45:22;1377.38;;;999.90;;
69835;SDS011;57132;51.972;4.450;2022-10-16T00:47:48;1423.97;;;999.90;;
69835;SDS011;57132;51.972;4.450;2022-10-16T00:50:30;1421.63;;;999.90;;
69835;SDS011;57132;51.972;4.450;2022-10-16T00:52:57;1348.95;;;999.90;;
69835;SDS011;57132;51.972;4.450;2022-10-16T00:55:25;1391.10;;;999.90;;
69835;SDS011;57132;51.972;4.450;2022-10-16T00:57:53;1350.78;;;999.90;;
69835;SDS011;57132;51.972;4.450;2022-10-16T01:00:22;1255.72;;;995.95;;
69835;SDS011;57132;51.972;4.450;2022-10-16T01:02:53;1189.50;;;999.67;;
69835;SDS011;57132;51.972;4.450;2022-10-16T01:05:21;1088.07;;;965.88;;
69835;SDS011;57132;51.972;4.450;2022-10-16T01:08:04;1081.45;;;969.15;;
69835;SDS011;57132;51.972;4.450;2022-10-16T01:13:54;1025.18;;;926.67;;
69835;SDS011;57132;51.972;4.450;2022-10-16T01:16:27;996.33;;;904.90;;
69835;SDS011;57132;51.972;4.450;2022-10-16T01:19:02;969.28;;;887.42;;
69835;SDS011;57132;51.972;4.450;2022-10-16T01:21:31;956.08;;;877.28;;
69835;SDS011;57132;51.972;4.450;2022-10-16T01:29:53;932.05;;;857.90;;
69835;SDS011;57132;51.972;4.450;2022-10-16T01:32:28;904.15;;;835.65;;
69835;SDS011;57132;51.972;4.450;2022-10-16T01:34:59;904.47;;;836.67;;
69835;SDS011;57132;51.972;4.450;2022-10-16T01:37:35;883.22;;;819.78;;
69835;SDS011;57132;51.972;4.450;2022-10-16T01:40:06;851.38;;;791.97;;
69835;SDS011;57132;51.972;4.450;2022-10-16T01:42:37;848.03;;;787.90;;
69835;SDS011;57132;51.972;4.450;2022-10-16T01:45:07;811.88;;;757.53;;
69835;SDS011;57132;51.972;4.450;2022-10-16T01:47:36;818.67;;;762.38;;
69835;SDS011;57132;51.972;4.450;2022-10-16T01:50:03;807.28;;;754.63;;
69835;SDS011;57132;51.972;4.450;2022-10-16T01:52:30;800.35;;;747.40;;
69835;SDS011;57132;51.972;4.450;2022-10-16T01:54:58;796.60;;;745.20;;
69835;SDS011;57132;51.972;4.450;2022-10-16T01:57:25;783.67;;;733.03;;
69835;SDS011;57132;51.972;4.450;2022-10-16T01:59:55;813.08;;;759.47;;
69835;SDS011;57132;51.972;4.450;2022-10-16T02:02:25;817.40;;;763.38;;
69835;SDS011;57132;51.972;4.450;2022-10-16T02:04:54;827.30;;;772.10;;
69835;SDS011;57132;51.972;4.450;2022-10-16T02:07:27;845.60;;;787.92;;
69835;SDS011;57132;51.972;4.450;2022-10-16T02:09:52;852.90;;;794.63;;
69835;SDS011;57132;51.972;4.450;2022-10-16T02:12:21;837.95;;;780.60;;
69835;SDS011;57132;51.972;4.450;2022-10-16T02:14:52;835.83;;;779.00;;
69835;SDS011;57132;51.972;4.450;2022-10-16T02:17:18;845.22;;;788.15;;
69835;SDS011;57132;51.972;4.450;2022-10-16T02:19:44;844.70;;;786.50;;
69835;SDS011;57132;51.972;4.450;2022-10-16T02:22:17;851.63;;;792.83;;
69835;SDS011;57132;51.972;4.450;2022-10-16T02:24:54;845.33;;;786.03;;
69835;SDS011;57132;51.972;4.450;2022-10-16T02:27:33;853.70;;;792.83;;
69835;SDS011;57132;51.972;4.450;2022-10-16T02:32:33;874.33;;;813.40;;
69835;SDS011;57132;51.972;4.450;2022-10-16T02:35:00;870.28;;;805.85;;
69835;SDS011;57132;51.972;4.450;2022-10-16T02:37:27;849.85;;;791.35;;
69835;SDS011;57132;51.972;4.450;2022-10-16T02:39:53;855.45;;;795.15;;
69835;SDS011;57132;51.972;4.450;2022-10-16T02:42:20;848.25;;;789.65;;
69835;SDS011;57132;51.972;4.450;2022-10-16T02:44:45;846.20;;;788.30;;
69835;SDS011;57132;51.972;4.450;2022-10-16T02:47:10;861.45;;;800.53;;
69835;SDS011;57132;51.972;4.450;2022-10-16T02:49:36;867.28;;;806.53;;
69835;SDS011;57132;51.972;4.450;2022-10-16T02:52:02;852.88;;;794.42;;
69835;SDS011;57132;51.972;4.450;2022-10-16T02:54:27;853.03;;;794.22;;
69835;SDS011;57132;51.972;4.450;2022-10-16T02:56:53;811.85;;;756.05;;
69835;SDS011;57132;51.972;4.450;2022-10-16T02:59:18;842.78;;;785.65;;
69835;SDS011;57132;51.972;4.450;2022-10-16T03:01:43;843.00;;;783.38;;
69835;SDS011;57132;51.972;4.450;2022-10-16T03:04:09;834.85;;;777.17;;
69835;SDS011;57132;51.972;4.450;2022-10-16T03:06:34;834.08;;;778.20;;
69835;SDS011;57132;51.972;4.450;2022-10-16T03:09:00;813.65;;;758.28;;
69835;SDS011;57132;51.972;4.450;2022-10-16T03:11:25;809.17;;;754.53;;
69835;SDS011;57132;51.972;4.450;2022-10-16T03:13:51;775.38;;;724.75;;
69835;SDS011;57132;51.972;4.450;2022-10-16T03:16:16;776.55;;;727.53;;
69835;SDS011;57132;51.972;4.450;2022-10-16T03:18:42;744.70;;;696.58;;
69835;SDS011;57132;51.972;4.450;2022-10-16T03:21:07;736.83;;;691.17;;
69835;SDS011;57132;51.972;4.450;2022-10-16T03:23:32;736.15;;;690.85;;
69835;SDS011;57132;51.972;4.450;2022-10-16T03:25:58;734.78;;;689.05;;
69835;SDS011;57132;51.972;4.450;2022-10-16T03:28:23;741.63;;;694.70;;
69835;SDS011;57132;51.972;4.450;2022-10-16T03:30:49;731.20;;;685.00;;
69835;SDS011;57132;51.972;4.450;2022-10-16T03:33:14;763.03;;;714.13;;
69835;SDS011;57132;51.972;4.450;2022-10-16T03:35:39;781.33;;;731.15;;
69835;SDS011;57132;51.972;4.450;2022-10-16T03:38:05;805.20;;;752.03;;
69835;SDS011;57132;51.972;4.450;2022-10-16T03:40:30;810.05;;;756.97;;
69835;SDS011;57132;51.972;4.450;2022-10-16T03:42:57;813.53;;;758.55;;
69835;SDS011;57132;51.972;4.450;2022-10-16T03:45:23;836.42;;;779.38;;
69835;SDS011;57132;51.972;4.450;2022-10-16T03:47:48;845.25;;;788.42;;
69835;SDS011;57132;51.972;4.450;2022-10-16T03:50:15;841.45;;;783.42;;
69835;SDS011;57132;51.972;4.450;2022-10-16T03:52:40;821.17;;;766.42;;
69835;SDS011;57132;51.972;4.450;2022-10-16T03:55:06;788.75;;;736.17;;
69835;SDS011;57132;51.972;4.450;2022-10-16T03:57:31;794.05;;;741.17;;
69835;SDS011;57132;51.972;4.450;2022-10-16T03:59:57;790.10;;;737.17;;
69835;SDS011;57132;51.972;4.450;2022-10-16T04:02:22;789.90;;;738.47;;
69835;SDS011;57132;51.972;4.450;2022-10-16T04:04:48;781.75;;;729.53;;
69835;SDS011;57132;51.972;4.450;2022-10-16T04:07:13;783.42;;;733.28;;
69835;SDS011;57132;51.972;4.450;2022-10-16T04:09:38;765.88;;;716.88;;
69835;SDS011;57132;51.972;4.450;2022-10-16T04:12:04;768.45;;;718.92;;
69835;SDS011;57132;51.972;4.450;2022-10-16T04:14:29;738.97;;;692.63;;
69835;SDS011;57132;51.972;4.450;2022-10-16T04:16:54;709.17;;;665.70;;
69835;SDS011;57132;51.972;4.450;2022-10-16T04:19:19;664.05;;;624.92;;
69835;SDS011;57132;51.972;4.450;2022-10-16T04:21:45;645.55;;;608.25;;
69835;SDS011;57132;51.972;4.450;2022-10-16T04:24:10;603.35;;;568.72;;
69835;SDS011;57132;51.972;4.450;2022-10-16T04:26:36;567.20;;;534.95;;
69835;SDS011;57132;51.972;4.450;2022-10-16T04:29:02;554.45;;;523.97;;
69835;SDS011;57132;51.972;4.450;2022-10-16T04:31:27;555.53;;;523.80;;
69835;SDS011;57132;51.972;4.450;2022-10-16T04:33:52;504.90;;;476.08;;
69835;SDS011;57132;51.972;4.450;2022-10-16T04:36:18;502.95;;;474.58;;
69835;SDS011;57132;51.972;4.450;2022-10-16T04:38:43;489.77;;;463.50;;
69835;SDS011;57132;51.972;4.450;2022-10-16T04:41:08;478.08;;;452.85;;
69835;SDS011;57132;51.972;4.450;2022-10-16T04:43:34;476.15;;;450.95;;
69835;SDS011;57132;51.972;4.450;2022-10-16T04:45:59;504.30;;;477.40;;
69835;SDS011;57132;51.972;4.450;2022-10-16T04:48:25;513.70;;;486.35;;
69835;SDS011;57132;51.972;4.450;2022-10-16T04:50:50;519.53;;;490.38;;
69835;SDS011;57132;51.972;4.450;2022-10-16T04:53:16;534.97;;;505.20;;
69835;SDS011;57132;51.972;4.450;2022-10-16T04:55:41;552.83;;;520.42;;
69835;SDS011;57132;51.972;4.450;2022-10-16T04:58:07;532.47;;;504.35;;
69835;SDS011;57132;51.972;4.450;2022-10-16T05:00:32;522.25;;;493.52;;
69835;SDS011;57132;51.972;4.450;2022-10-16T05:02:58;514.28;;;485.50;;
69835;SDS011;57132;51.972;4.450;2022-10-16T05:05:27;522.50;;;494.35;;
69835;SDS011;57132;51.972;4.450;2022-10-16T05:07:53;516.47;;;488.13;;
69835;SDS011;57132;51.972;4.450;2022-10-16T05:10:18;545.97;;;516.00;;
69835;SDS011;57132;51.972;4.450;2022-10-16T05:12:44;530.90;;;501.98;;
69835;SDS011;57132;51.972;4.450;2022-10-16T05:15:10;553.58;;;520.97;;
69835;SDS011;57132;51.972;4.450;2022-10-16T05:17:35;501.40;;;474.60;;
69835;SDS011;57132;51.972;4.450;2022-10-16T05:20:00;461.23;;;436.75;;
69835;SDS011;57132;51.972;4.450;2022-10-16T05:22:26;416.27;;;394.15;;
69835;SDS011;57132;51.972;4.450;2022-10-16T05:24:52;406.75;;;384.60;;
69835;SDS011;57132;51.972;4.450;2022-10-16T05:27:17;350.40;;;332.40;;
69835;SDS011;57132;51.972;4.450;2022-10-16T05:29:45;299.00;;;283.85;;
69835;SDS011;57132;51.972;4.450;2022-10-16T05:32:12;259.30;;;245.70;;
69835;SDS011;57132;51.972;4.450;2022-10-16T05:34:38;243.75;;;231.30;;
69835;SDS011;57132;51.972;4.450;2022-10-16T05:37:03;260.45;;;246.88;;
69835;SDS011;57132;51.972;4.450;2022-10-16T05:39:29;236.85;;;223.88;;
69835;SDS011;57132;51.972;4.450;2022-10-16T05:41:54;269.67;;;254.75;;
69835;SDS011;57132;51.972;4.450;2022-10-16T05:44:19;241.35;;;229.68;;
69835;SDS011;57132;51.972;4.450;2022-10-16T05:46:45;272.30;;;258.48;;
69835;SDS011;57132;51.972;4.450;2022-10-16T05:49:11;303.05;;;286.02;;
69835;SDS011;57132;51.972;4.450;2022-10-16T05:51:36;321.08;;;304.48;;
69835;SDS011;57132;51.972;4.450;2022-10-16T05:54:02;328.67;;;312.17;;
69835;SDS011;57132;51.972;4.450;2022-10-16T05:56:27;384.83;;;364.38;;
69835;SDS011;57132;51.972;4.450;2022-10-16T05:58:53;465.05;;;440.55;;
69835;SDS011;57132;51.972;4.450;2022-10-16T06:01:18;490.38;;;464.17;;
69835;SDS011;57132;51.972;4.450;2022-10-16T06:03:45;499.20;;;471.95;;
69835;SDS011;57132;51.972;4.450;2022-10-16T06:06:12;543.22;;;511.25;;
69835;SDS011;57132;51.972;4.450;2022-10-16T06:08:39;545.63;;;515.65;;
69835;SDS011;57132;51.972;4.450;2022-10-16T06:11:06;564.80;;;533.90;;
69835;SDS011;57132;51.972;4.450;2022-10-16T06:13:33;603.28;;;569.70;;
69835;SDS011;57132;51.972;4.450;2022-10-16T06:15:59;668.85;;;627.33;;
69835;SDS011;57132;51.972;4.450;2022-10-16T06:18:26;798.85;;;743.85;;
69835;SDS011;57132;51.972;4.450;2022-10-16T06:20:52;879.97;;;815.88;;
69835;SDS011;57132;51.972;4.450;2022-10-16T06:23:18;900.08;;;831.72;;
69835;SDS011;57132;51.972;4.450;2022-10-16T06:25:43;906.40;;;838.03;;
69835;SDS011;57132;51.972;4.450;2022-10-16T06:28:09;910.33;;;840.25;;
69835;SDS011;57132;51.972;4.450;2022-10-16T06:30:34;929.58;;;856.30;;
69835;SDS011;57132;51.972;4.450;2022-10-16T06:32:59;934.00;;;860.35;;
69835;SDS011;57132;51.972;4.450;2022-10-16T06:35:24;855.70;;;792.20;;
69835;SDS011;57132;51.972;4.450;2022-10-16T06:37:50;725.45;;;675.72;;
69835;SDS011;57132;51.972;4.450;2022-10-16T06:40:18;655.20;;;614.63;;
69835;SDS011;57132;51.972;4.450;2022-10-16T06:42:43;594.67;;;558.35;;
69835;SDS011;57132;51.972;4.450;2022-10-16T06:45:08;556.80;;;525.42;;
69835;SDS011;57132;51.972;4.450;2022-10-16T06:47:34;517.90;;;489.02;;
69835;SDS011;57132;51.972;4.450;2022-10-16T06:49:59;512.25;;;483.70;;
69835;SDS011;57132;51.972;4.450;2022-10-16T06:52:27;542.65;;;511.60;;
69835;SDS011;57132;51.972;4.450;2022-10-16T06:54:53;546.42;;;516.20;;
69835;SDS011;57132;51.972;4.450;2022-10-16T06:57:18;520.47;;;492.20;;
69835;SDS011;57132;51.972;4.450;2022-10-16T06:59:43;561.10;;;528.40;;
69835;SDS011;57132;51.972;4.450;2022-10-16T07:02:09;578.35;;;544.97;;
69835;SDS011;57132;51.972;4.450;2022-10-16T07:04:35;558.33;;;527.55;;
69835;SDS011;57132;51.972;4.450;2022-10-16T07:07:01;574.65;;;539.20;;
69835;SDS011;57132;51.972;4.450;2022-10-16T07:09:26;523.47;;;494.35;;
69835;SDS011;57132;51.972;4.450;2022-10-16T07:11:52;524.65;;;494.73;;
69835;SDS011;57132;51.972;4.450;2022-10-16T07:14:18;507.30;;;479.45;;
69835;SDS011;57132;51.972;4.450;2022-10-16T07:16:45;526.58;;;495.40;;
69835;SDS011;57132;51.972;4.450;2022-10-16T07:19:11;494.00;;;467.23;;
69835;SDS011;57132;51.972;4.450;2022-10-16T07:21:38;529.40;;;499.42;;
69835;SDS011;57132;51.972;4.450;2022-10-16T07:24:05;548.83;;;519.08;;
69835;SDS011;57132;51.972;4.450;2022-10-16T07:26:33;636.80;;;597.55;;
69835;SDS011;57132;51.972;4.450;2022-10-16T07:29:00;622.67;;;587.45;;
69835;SDS011;57132;51.972;4.450;2022-10-16T07:31:25;614.65;;;579.30;;
69835;SDS011;57132;51.972;4.450;2022-10-16T07:33:51;649.17;;;611.47;;
69835;SDS011;57132;51.972;4.450;2022-10-16T07:36:18;688.25;;;644.92;;
69835;SDS011;57132;51.972;4.450;2022-10-16T07:38:45;762.33;;;712.85;;
69835;SDS011;57132;51.972;4.450;2022-10-16T07:41:12;738.50;;;691.05;;
69835;SDS011;57132;51.972;4.450;2022-10-16T07:43:40;755.33;;;706.38;;
69835;SDS011;57132;51.972;4.450;2022-10-16T07:46:06;766.65;;;716.08;;
69835;SDS011;57132;51.972;4.450;2022-10-16T07:48:32;746.03;;;699.53;;
69835;SDS011;57132;51.972;4.450;2022-10-16T07:51:00;725.88;;;680.70;;
69835;SDS011;57132;51.972;4.450;2022-10-16T07:53:26;767.40;;;718.38;;
69835;SDS011;57132;51.972;4.450;2022-10-16T07:55:56;793.70;;;740.92;;
69835;SDS011;57132;51.972;4.450;2022-10-16T07:58:24;847.50;;;788.50;;
69835;SDS011;57132;51.972;4.450;2022-10-16T08:00:50;859.08;;;797.72;;
69835;SDS011;57132;51.972;4.450;2022-10-16T08:03:15;875.03;;;811.03;;
69835;SDS011;57132;51.972;4.450;2022-10-16T08:05:41;886.65;;;821.70;;
69835;SDS011;57132;51.972;4.450;2022-10-16T08:08:06;872.22;;;807.53;;
69835;SDS011;57132;51.972;4.450;2022-10-16T08:10:31;840.60;;;782.10;;
69835;SDS011;57132;51.972;4.450;2022-10-16T08:12:57;882.67;;;814.65;;
69835;SDS011;57132;51.972;4.450;2022-10-16T08:15:23;897.08;;;829.85;;
69835;SDS011;57132;51.972;4.450;2022-10-16T08:17:58;919.58;;;848.40;;
69835;SDS011;57132;51.972;4.450;2022-10-16T08:20:25;936.55;;;859.13;;
69835;SDS011;57132;51.972;4.450;2022-10-16T08:22:51;921.30;;;848.92;;
69835;SDS011;57132;51.972;4.450;2022-10-16T08:25:17;926.60;;;855.75;;
69835;SDS011;57132;51.972;4.450;2022-10-16T08:27:42;921.08;;;848.88;;
69835;SDS011;57132;51.972;4.450;2022-10-16T08:30:09;950.22;;;873.50;;
69835;SDS011;57132;51.972;4.450;2022-10-16T08:32:35;977.25;;;893.55;;
69835;SDS011;57132;51.972;4.450;2022-10-16T08:35:00;957.17;;;878.53;;
69835;SDS011;57132;51.972;4.450;2022-10-16T08:37:29;951.40;;;873.92;;
69835;SDS011;57132;51.972;4.450;2022-10-16T08:39:56;951.85;;;868.67;;
69835;SDS011;57132;51.972;4.450;2022-10-16T08:48:25;994.03;;;905.80;;
69835;SDS011;57132;51.972;4.450;2022-10-16T08:50:52;1006.35;;;914.67;;
69835;SDS011;57132;51.972;4.450;2022-10-16T08:53:20;996.45;;;909.75;;
69835;SDS011;57132;51.972;4.450;2022-10-16T08:55:52;1033.85;;;934.58;;
69835;SDS011;57132;51.972;4.450;2022-10-16T09:00:55;1030.90;;;935.90;;
69835;SDS011;57132;51.972;4.450;2022-10-16T09:06:18;1036.78;;;934.10;;
69835;SDS011;57132;51.972;4.450;2022-10-16T09:16:43;1176.07;;;997.00;;
69835;SDS011;57132;51.972;4.450;2022-10-16T09:19:21;1200.00;;;999.90;;
69835;SDS011;57132;51.972;4.450;2022-10-16T09:21:53;1135.25;;;990.50;;
69835;SDS011;57132;51.972;4.450;2022-10-16T09:24:21;1095.25;;;976.60;;
69835;SDS011;57132;51.972;4.450;2022-10-16T09:26:49;930.97;;;850.88;;
69835;SDS011;57132;51.972;4.450;2022-10-16T09:29:15;966.97;;;875.30;;
69835;SDS011;57132;51.972;4.450;2022-10-16T09:31:45;1000.38;;;898.97;;
69835;SDS011;57132;51.972;4.450;2022-10-16T09:34:30;1002.42;;;902.92;;
69835;SDS011;57132;51.972;4.450;2022-10-16T09:37:03;973.08;;;877.80;;
69835;SDS011;57132;51.972;4.450;2022-10-16T09:39:43;1008.15;;;905.05;;
69835;SDS011;57132;51.972;4.450;2022-10-16T09:42:13;1008.28;;;905.65;;
69835;SDS011;57132;51.972;4.450;2022-10-16T09:44:41;1043.70;;;922.95;;
69835;SDS011;57132;51.972;4.450;2022-10-16T09:47:17;1139.63;;;957.20;;
69835;SDS011;57132;51.972;4.450;2022-10-16T09:49:54;1029.78;;;918.35;;
69835;SDS011;57132;51.972;4.450;2022-10-16T09:52:26;997.55;;;895.83;;
69835;SDS011;57132;51.972;4.450;2022-10-16T09:54:56;991.22;;;892.05;;
69835;SDS011;57132;51.972;4.450;2022-10-16T09:57:24;998.55;;;895.00;;
69835;SDS011;57132;51.972;4.450;2022-10-16T09:59:51;1013.15;;;909.25;;
69835;SDS011;57132;51.972;4.450;2022-10-16T10:02:19;1053.45;;;923.20;;
69835;SDS011;57132;51.972;4.450;2022-10-16T10:04:53;1011.78;;;906.85;;
69835;SDS011;57132;51.972;4.450;2022-10-16T10:07:32;1029.30;;;918.60;;
69835;SDS011;57132;51.972;4.450;2022-10-16T10:10:03;983.17;;;877.55;;
69835;SDS011;57132;51.972;4.450;2022-10-16T10:12:30;1026.47;;;916.28;;
69835;SDS011;57132;51.972;4.450;2022-10-16T10:15:02;1048.05;;;926.47;;
69835;SDS011;57132;51.972;4.450;2022-10-16T10:17:44;1074.60;;;927.17;;
69835;SDS011;57132;51.972;4.450;2022-10-16T10:22:50;1289.35;;;980.55;;
69835;SDS011;57132;51.972;4.450;2022-10-16T10:25:19;1271.45;;;972.85;;
69835;SDS011;57132;51.972;4.450;2022-10-16T10:33:16;1261.88;;;961.05;;
69835;SDS011;57132;51.972;4.450;2022-10-16T10:35:55;1278.90;;;975.65;;
69835;SDS011;57132;51.972;4.450;2022-10-16T10:38:32;1151.15;;;951.17;;
69835;SDS011;57132;51.972;4.450;2022-10-16T10:46:51;1099.90;;;945.33;;
69835;SDS011;57132;51.972;4.450;2022-10-16T11:06:26;997.53;;;893.97;;
69835;SDS011;57132;51.972;4.450;2022-10-16T11:16:38;973.17;;;869.63;;
69835;SDS011;57132;51.972;4.450;2022-10-16T11:19:12;976.85;;;874.42;;
69835;SDS011;57132;51.972;4.450;2022-10-16T11:21:49;1021.20;;;913.58;;
69835;SDS011;57132;51.972;4.450;2022-10-16T11:27:09;989.83;;;887.20;;
69835;SDS011;57132;51.972;4.450;2022-10-16T11:29:43;986.20;;;882.85;;
69835;SDS011;57132;51.972;4.450;2022-10-16T11:32:27;1002.22;;;896.75;;
69835;SDS011;57132;51.972;4.450;2022-10-16T11:35:11;983.63;;;881.13;;
69835;SDS011;57132;51.972;4.450;2022-10-16T11:37:44;992.03;;;889.22;;
69835;SDS011;57132;51.972;4.450;2022-10-16T11:40:19;1016.00;;;909.58;;
69835;SDS011;57132;51.972;4.450;2022-10-16T11:42:50;977.80;;;872.30;;
69835;SDS011;57132;51.972;4.450;2022-10-16T11:50:53;876.22;;;788.28;;
69835;SDS011;57132;51.972;4.450;2022-10-16T11:56:16;851.85;;;770.00;;
69835;SDS011;57132;51.972;4.450;2022-10-16T12:01:30;820.90;;;738.50;;
69835;SDS011;57132;51.972;4.450;2022-10-16T12:04:09;790.60;;;712.10;;
69835;SDS011;57132;51.972;4.450;2022-10-16T12:07:08;799.80;;;724.08;;
69835;SDS011;57132;51.972;4.450;2022-10-16T12:09:38;804.47;;;726.30;;
69835;SDS011;57132;51.972;4.450;2022-10-16T12:12:04;774.80;;;699.00;;
69835;SDS011;57132;51.972;4.450;2022-10-16T12:14:48;709.70;;;639.38;;
69835;SDS011;57132;51.972;4.450;2022-10-16T12:17:45;761.28;;;686.70;;
69835;SDS011;57132;51.972;4.450;2022-10-16T12:22:47;705.58;;;638.00;;
69835;SDS011;57132;51.972;4.450;2022-10-16T12:25:20;790.00;;;707.53;;
69835;SDS011;57132;51.972;4.450;2022-10-16T12:27:55;866.83;;;782.33;;
69835;SDS011;57132;51.972;4.450;2022-10-16T12:32:53;780.40;;;701.30;;
69835;SDS011;57132;51.972;4.450;2022-10-16T12:35:21;816.22;;;735.78;;
69835;SDS011;57132;51.972;4.450;2022-10-16T12:37:49;769.20;;;694.33;;
69835;SDS011;57132;51.972;4.450;2022-10-16T12:40:23;851.05;;;767.17;;
69835;SDS011;57132;51.972;4.450;2022-10-16T12:42:52;827.70;;;742.90;;
69835;SDS011;57132;51.972;4.450;2022-10-16T12:47:56;636.42;;;573.63;;
69835;SDS011;57132;51.972;4.450;2022-10-16T12:50:43;623.60;;;559.70;;
69835;SDS011;57132;51.972;4.450;2022-10-16T12:53:19;707.30;;;632.20;;
69835;SDS011;57132;51.972;4.450;2022-10-16T13:00:57;775.28;;;690.88;;
69835;SDS011;57132;51.972;4.450;2022-10-16T13:11:28;1591.28;;;831.35;;
69835;SDS011;57132;51.972;4.450;2022-10-16T13:25:36;1999.90;;;999.90;;
69835;SDS011;57132;51.972;4.450;2022-10-16T13:28:19;549.65;;;453.48;;
69835;SDS011;57132;51.972;4.450;2022-10-16T13:30:53;545.67;;;467.60;;
69835;SDS011;57132;51.972;4.450;2022-10-16T13:33:32;696.83;;;623.28;;
69835;SDS011;57132;51.972;4.450;2022-10-16T13:36:00;597.17;;;531.47;;
69835;SDS011;57132;51.972;4.450;2022-10-16T13:38:27;742.17;;;665.33;;
69835;SDS011;57132;51.972;4.450;2022-10-16T13:40:55;850.05;;;764.30;;
69835;SDS011;57132;51.972;4.450;2022-10-16T13:43:23;985.25;;;883.75;;
69835;SDS011;57132;51.972;4.450;2022-10-16T13:45:52;1332.35;;;909.08;;
69835;SDS011;57132;51.972;4.450;2022-10-16T13:48:25;937.78;;;845.58;;
69835;SDS011;57132;51.972;4.450;2022-10-16T13:53:52;1009.15;;;903.30;;
69835;SDS011;57132;51.972;4.450;2022-10-16T13:56:20;974.28;;;877.38;;
69835;SDS011;57132;51.972;4.450;2022-10-16T14:01:29;1191.63;;;958.25;;
69835;SDS011;57132;51.972;4.450;2022-10-16T14:04:05;1045.87;;;936.80;;
69835;SDS011;57132;51.972;4.450;2022-10-16T14:06:36;1072.00;;;953.67;;
69835;SDS011;57132;51.972;4.450;2022-10-16T14:11:36;1007.58;;;906.45;;
69835;SDS011;57132;51.972;4.450;2022-10-16T14:14:11;1039.57;;;932.30;;
69835;SDS011;57132;51.972;4.450;2022-10-16T14:16:37;982.42;;;884.53;;
69835;SDS011;57132;51.972;4.450;2022-10-16T14:19:13;979.80;;;880.70;;
69835;SDS011;57132;51.972;4.450;2022-10-16T14:21:40;1022.78;;;917.30;;
69835;SDS011;57132;51.972;4.450;2022-10-16T14:24:12;990.83;;;892.60;;
69835;SDS011;57132;51.972;4.450;2022-10-16T14:26:43;991.10;;;893.63;;
69835;SDS011;57132;51.972;4.450;2022-10-16T14:29:11;1021.30;;;914.70;;
69835;SDS011;57132;51.972;4.450;2022-10-16T14:31:38;1046.05;;;937.30;;
69835;SDS011;57132;51.972;4.450;2022-10-16T14:34:22;1027.63;;;922.95;;
69835;SDS011;57132;51.972;4.450;2022-10-16T14:36:49;1011.35;;;909.53;;
69835;SDS011;57132;51.972;4.450;2022-10-16T14:39:19;1023.55;;;917.35;;
69835;SDS011;57132;51.972;4.450;2022-10-16T14:41:49;1035.18;;;926.30;;
69835;SDS011;57132;51.972;4.450;2022-10-16T14:44:17;1030.82;;;925.55;;
69835;SDS011;57132;51.972;4.450;2022-10-16T14:46:44;991.55;;;893.53;;
69835;SDS011;57132;51.972;4.450;2022-10-16T14:51:35;959.88;;;866.17;;
69835;SDS011;57132;51.972;4.450;2022-10-16T14:54:02;940.22;;;849.10;;
69835;SDS011;57132;51.972;4.450;2022-10-16T14:57:01;984.30;;;886.60;;
69835;SDS011;57132;51.972;4.450;2022-10-16T14:59:32;933.45;;;842.95;;
69835;SDS011;57132;51.972;4.450;2022-10-16T15:02:46;1064.03;;;943.92;;
69835;SDS011;57132;51.972;4.450;2022-10-16T15:04:54;1074.53;;;950.33;;
69835;SDS011;57132;51.972;4.450;2022-10-16T15:07:20;1071.45;;;955.30;;
69835;SDS011;57132;51.972;4.450;2022-10-16T15:09:45;1048.80;;;934.65;;
69835;SDS011;57132;51.972;4.450;2022-10-16T15:12:11;1243.45;;;964.05;;
69835;SDS011;57132;51.972;4.450;2022-10-16T15:14:37;1144.32;;;969.92;;
69835;SDS011;57132;51.972;4.450;2022-10-16T15:17:02;1103.50;;;946.05;;
69835;SDS011;57132;51.972;4.450;2022-10-16T15:19:28;1124.35;;;967.75;;
69835;SDS011;57132;51.972;4.450;2022-10-16T15:21:54;1295.35;;;986.45;;
69835;SDS011;57132;51.972;4.450;2022-10-16T15:24:19;1231.43;;;978.88;;
69835;SDS011;57132;51.972;4.450;2022-10-16T15:26:45;1186.18;;;983.67;;
69835;SDS011;57132;51.972;4.450;2022-10-16T15:29:14;1141.82;;;967.60;;
69835;SDS011;57132;51.972;4.450;2022-10-16T15:31:39;1137.90;;;968.28;;
69835;SDS011;57132;51.972;4.450;2022-10-16T15:34:08;1307.55;;;992.03;;
69835;SDS011;57132;51.972;4.450;2022-10-16T15:36:36;1288.03;;;986.28;;
69835;SDS011;57132;51.972;4.450;2022-10-16T15:39:11;1356.18;;;994.72;;
69835;SDS011;57132;51.972;4.450;2022-10-16T15:41:39;1267.45;;;982.13;;
69835;SDS011;57132;51.972;4.450;2022-10-16T15:44:04;1426.75;;;999.50;;
69835;SDS011;57132;51.972;4.450;2022-10-16T15:46:30;1410.43;;;990.88;;
69835;SDS011;57132;51.972;4.450;2022-10-16T15:48:56;1400.35;;;994.47;;
69835;SDS011;57132;51.972;4.450;2022-10-16T15:51:23;1396.60;;;996.42;;
69835;SDS011;57132;51.972;4.450;2022-10-16T15:53:49;1427.72;;;999.90;;
69835;SDS011;57132;51.972;4.450;2022-10-16T15:56:16;1408.32;;;992.75;;
69835;SDS011;57132;51.972;4.450;2022-10-16T15:58:42;1419.60;;;997.67;;
69835;SDS011;57132;51.972;4.450;2022-10-16T16:01:08;1395.25;;;995.50;;
69835;SDS011;57132;51.972;4.450;2022-10-16T16:03:35;1439.13;;;999.90;;
69835;SDS011;57132;51.972;4.450;2022-10-16T16:06:05;1422.55;;;999.90;;
69835;SDS011;57132;51.972;4.450;2022-10-16T16:08:32;1418.40;;;998.85;;